Time;durP1;ratioP1;P1;durP2;ratioP2;P2;SDS_P1;SDS_P2;PMS_P1;PMS_P2;Temp;Humidity;BMP_temperature;BMP_pressure;BME280_temperature;BME280_humidity;BME280_pressure;Samples;Min_cycle;Max_cycle;Signal;HPM_P1;HPM_P2
2020/03/19 00:01:29;;;;;;;18.4;16.4;;;;;;;9.71;80.40332;966.8886;;;;
2020/03/19 00:06:19;;;;;;;17.8;16;;;;;;;9.65;80.79395;966.8703;;;;
2020/03/19 00:08:44;;;;;;;19.9;16.3;;;;;;;9.65;80.3916;966.8599;;;;
2020/03/19 00:11:10;;;;;;;19;17;;;;;;;9.64;80.5625;966.8391;;;;
2020/03/19 00:13:35;;;;;;;18.4;16.5;;;;;;;9.65;80.40332;966.8377;;;;
2020/03/19 00:16:00;;;;;;;17.4;15.7;;;;;;;9.63;80.67578;966.8333;;;;
2020/03/19 00:18:25;;;;;;;16.8;15.1;;;;;;;9.7;79.94238;966.7687;;;;
2020/03/19 00:21:47;;;;;;;17.6;15.7;;;;;;;9.71;79.94434;966.7332;;;;
2020/03/19 00:24:12;;;;;;;17.2;15.5;;;;;;;9.69;79.69922;966.7389;;;;
2020/03/19 00:26:38;;;;;;;17.3;15.5;;;;;;;9.63;80.35449;966.7181;;;;
2020/03/19 00:29:03;;;;;;;19.3;16;;;;;;;9.57;80.55078;966.7172;;;;
2020/03/19 00:31:28;;;;;;;18.2;16.3;;;;;;;9.51;81.00977;966.7322;;;;
2020/03/19 00:33:53;;;;;;;18.2;16.3;;;;;;;9.56;80.38867;966.7419;;;;
2020/03/19 00:36:18;;;;;;;17.7;15.9;;;;;;;9.52;80.73633;966.7162;;;;
2020/03/19 00:38:43;;;;;;;19.1;17.1;;;;;;;9.36;81.66992;966.6783;;;;
2020/03/19 00:41:08;;;;;;;18.9;16.9;;;;;;;9.49;80.54688;966.7216;;;;
2020/03/19 00:43:33;;;;;;;17.5;15.7;;;;;;;9.46;81.61914;966.7247;;;;
2020/03/19 00:45:58;;;;;;;17.6;15.9;;;;;;;9.41;81.20801;966.7024;;;;
2020/03/19 00:48:24;;;;;;;18.9;16.9;;;;;;;9.31;82.1543;966.695;;;;
2020/03/19 00:50:49;;;;;;;18.5;16.6;;;;;;;9.29;81.17383;966.7374;;;;
2020/03/19 00:53:14;;;;;;;17.1;15.4;;;;;;;9.32;81.46777;966.7197;;;;
2020/03/19 00:55:39;;;;;;;17.1;15.4;;;;;;;9.32;81.43359;966.649;;;;
2020/03/19 00:58:04;;;;;;;18;16.2;;;;;;;9.31;81.16797;966.6096;;;;
2020/03/19 01:00:29;;;;;;;17.8;16;;;;;;;9.29;81.53027;966.6316;;;;
2020/03/19 01:02:55;;;;;;;17.6;15.9;;;;;;;9.21;81.79004;966.6108;;;;
2020/03/19 01:05:20;;;;;;;18.1;16.2;;;;;;;9.17;83.72168;966.5826;;;;
2020/03/19 01:07:45;;;;;;;18.1;16.3;;;;;;;9.1;82.41211;966.5664;;;;
2020/03/19 01:10:10;;;;;;;18.4;16.5;;;;;;;9.08;82.72949;966.5421;;;;
2020/03/19 01:12:35;;;;;;;20.1;17.9;;;;;;;9.08;83.89941;966.5266;;;;
2020/03/19 01:15:00;;;;;;;18.1;16.3;;;;;;;9.05;83.08984;966.5272;;;;
2020/03/19 01:17:25;;;;;;;18.5;16.7;;;;;;;9.01;83.0498;966.5023;;;;
2020/03/19 01:19:50;;;;;;;19.5;17.5;;;;;;;9.04;82.8125;966.5137;;;;
2020/03/19 01:22:15;;;;;;;19.5;17.5;;;;;;;9.01;83.01563;966.5055;;;;
2020/03/19 01:24:41;;;;;;;19.5;17.5;;;;;;;9.03;83.6709;966.527;;;;
2020/03/19 01:27:06;;;;;;;20.8;18.7;;;;;;;8.93;83.42285;966.5609;;;;
2020/03/19 01:29:31;;;;;;;20.3;18.1;;;;;;;8.9;83.6123;966.5647;;;;
2020/03/19 01:31:56;;;;;;;20.5;18.3;;;;;;;8.87;84.76367;966.5359;;;;
2020/03/19 01:34:21;;;;;;;20.1;18.1;;;;;;;8.84;83.93262;966.5471;;;;
2020/03/19 01:36:46;;;;;;;19.8;17.7;;;;;;;8.83;84.08008;966.5485;;;;
2020/03/19 01:39:11;;;;;;;19.8;17.8;;;;;;;8.82;83.76758;966.5494;;;;
2020/03/19 01:41:36;;;;;;;19.4;17.6;;;;;;;8.78;84.28711;966.5561;;;;
2020/03/19 01:44:01;;;;;;;20;17.9;;;;;;;8.76;84.45605;966.5187;;;;
2020/03/19 01:46:26;;;;;;;20.5;18.3;;;;;;;8.75;83.84473;966.472;;;;
2020/03/19 01:48:51;;;;;;;20.9;18.8;;;;;;;8.72;84.44727;966.5417;;;;
2020/03/19 01:51:16;;;;;;;20.9;18.8;;;;;;;8.59;85.39453;966.449;;;;
2020/03/19 01:53:42;;;;;;;25.9;21.1;;;;;;;8.48;86.20898;966.5171;;;;
2020/03/19 01:56:07;;;;;;;23.3;20.5;;;;;;;8.44;86.69629;966.494;;;;
2020/03/19 01:58:32;;;;;;;23.5;20.6;;;;;;;8.34;87.21484;966.4969;;;;
2020/03/19 02:00:57;;;;;;;24.3;21.8;;;;;;;8.49;86.77441;966.5053;;;;
2020/03/19 02:03:22;;;;;;;23.9;21.4;;;;;;;8.37;87.5752;966.4801;;;;
2020/03/19 02:05:47;;;;;;;26;23.1;;;;;;;8.31;87.7793;966.4494;;;;
2020/03/19 02:08:12;;;;;;;24.6;22.1;;;;;;;8.36;88.13379;966.4247;;;;
2020/03/19 02:10:37;;;;;;;24.9;22.2;;;;;;;8.3;87.5127;966.4401;;;;
2020/03/19 02:13:03;;;;;;;25.6;22.8;;;;;;;8.26;88.12598;966.4283;;;;
2020/03/19 02:15:28;;;;;;;26.2;23.4;;;;;;;8.22;88.63184;966.4338;;;;
2020/03/19 02:17:53;;;;;;;25.1;22.5;;;;;;;8.3;88.73926;966.4183;;;;
2020/03/19 02:20:18;;;;;;;27.2;24.5;;;;;;;8.24;89.25293;966.4315;;;;
2020/03/19 02:22:43;;;;;;;26;23.2;;;;;;;8.2;89.4502;966.4136;;;;
2020/03/19 02:25:08;;;;;;;28;24.7;;;;;;;8.09;90.13672;966.4059;;;;
2020/03/19 02:27:33;;;;;;;26.8;24.1;;;;;;;8.09;90.43652;966.3954;;;;
2020/03/19 02:29:58;;;;;;;25.6;22.9;;;;;;;8.16;90.18652;966.3688;;;;
2020/03/19 02:32:23;;;;;;;27.2;24.3;;;;;;;8.22;89.94629;966.3963;;;;
2020/03/19 02:34:48;;;;;;;28.1;25.1;;;;;;;8.2;90.14844;966.3884;;;;
2020/03/19 02:37:13;;;;;;;27.3;24.4;;;;;;;8.21;89.88867;966.3531;;;;
2020/03/19 02:39:38;;;;;;;28;25.1;;;;;;;8.1;90.74512;966.3575;;;;
2020/03/19 02:42:03;;;;;;;28;25.1;;;;;;;8.09;90.70898;966.367;;;;
2020/03/19 02:44:28;;;;;;;28.3;25.3;;;;;;;8.1;90.73438;966.4127;;;;
2020/03/19 02:46:53;;;;;;;27.1;24.4;;;;;;;8.09;90.83691;966.3501;;;;
2020/03/19 02:49:19;;;;;;;28.3;25.2;;;;;;;8.04;91.39551;966.3599;;;;
2020/03/19 02:51:44;;;;;;;27.8;24.9;;;;;;;8.02;91.16309;966.3992;;;;
2020/03/19 02:54:09;;;;;;;28.1;25.1;;;;;;;8.04;90.93848;966.3729;;;;
2020/03/19 02:56:34;;;;;;;26.9;24.2;;;;;;;8.05;91.19336;966.3786;;;;
2020/03/19 02:58:59;;;;;;;27.9;24.4;;;;;;;8.01;90.88672;966.3751;;;;
2020/03/19 03:01:24;;;;;;;28;25.2;;;;;;;8.01;91.12695;966.4117;;;;
2020/03/19 03:03:49;;;;;;;27.6;24.8;;;;;;;7.98;91.44141;966.3602;;;;
2020/03/19 03:06:14;;;;;;;30.1;27;;;;;;;8.01;92.03125;966.3856;;;;
2020/03/19 03:08:39;;;;;;;29.8;26.6;;;;;;;8.03;91.72754;966.4465;;;;
2020/03/19 03:11:05;;;;;;;31.5;28.1;;;;;;;7.95;92.21387;966.4539;;;;
2020/03/19 03:13:30;;;;;;;30.8;27.4;;;;;;;7.9;92.08789;966.5087;;;;
2020/03/19 03:15:55;;;;;;;30.3;27.3;;;;;;;7.83;92.61035;966.4611;;;;
2020/03/19 03:18:20;;;;;;;30.5;27.2;;;;;;;7.87;92.54004;966.3859;;;;
2020/03/19 03:20:45;;;;;;;28.3;25.5;;;;;;;7.92;91.81934;966.4161;;;;
2020/03/19 03:23:10;;;;;;;28.4;25.6;;;;;;;7.99;91.5918;966.4403;;;;
2020/03/19 03:25:36;;;;;;;29.1;26.1;;;;;;;7.92;91.06445;966.4843;;;;
2020/03/19 03:28:01;;;;;;;29.5;26.6;;;;;;;7.89;91.82324;966.3873;;;;
2020/03/19 03:30:26;;;;;;;29;26.1;;;;;;;7.92;91.83984;966.4322;;;;
2020/03/19 03:32:51;;;;;;;28.4;25.6;;;;;;;7.91;91.56348;966.4571;;;;
2020/03/19 03:35:17;;;;;;;30.2;27.1;;;;;;;7.83;92.22168;966.4278;;;;
2020/03/19 03:37:44;;;;;;;27.7;25;;;;;;;7.84;92.09766;966.4455;;;;
2020/03/19 03:40:07;;;;;;;28.1;25.4;;;;;;;7.85;91.84961;966.4736;;;;
2020/03/19 03:42:32;;;;;;;30.1;27.1;;;;;;;7.7;93.02734;966.4802;;;;
2020/03/19 03:44:57;;;;;;;28.2;25.4;;;;;;;7.63;93.11621;966.4596;;;;
2020/03/19 03:47:22;;;;;;;29.6;26.5;;;;;;;7.63;93.14844;966.4633;;;;
2020/03/19 03:49:48;;;;;;;26.7;24.1;;;;;;;7.7;92.68555;966.4682;;;;
2020/03/19 03:52:13;;;;;;;26.8;24.2;;;;;;;7.74;92.41895;966.399;;;;
2020/03/19 03:54:38;;;;;;;25.9;23.3;;;;;;;7.75;92.03223;966.3754;;;;
2020/03/19 03:57:03;;;;;;;24;21.5;;;;;;;7.81;91.45117;966.373;;;;
2020/03/19 03:59:28;;;;;;;23.9;21.6;;;;;;;7.69;91.84961;966.4053;;;;
2020/03/19 04:02:26;;;;;;;24.8;22.1;;;;;;;7.6;92.08203;966.3847;;;;
2020/03/19 04:04:52;;;;;;;23.7;21.2;;;;;;;7.57;92.24512;966.4086;;;;
2020/03/19 04:07:17;;;;;;;23.9;21.4;;;;;;;7.58;91.83594;966.3738;;;;
2020/03/19 04:09:42;;;;;;;23.7;21.2;;;;;;;7.51;92.21094;966.3825;;;;
2020/03/19 04:12:07;;;;;;;23.6;20.7;;;;;;;7.48;92.45508;966.3714;;;;
2020/03/19 04:14:32;;;;;;;25.6;22.5;;;;;;;7.47;92.17871;966.3578;;;;
2020/03/19 04:16:57;;;;;;;24.1;21.7;;;;;;;7.55;91.29492;966.3631;;;;
2020/03/19 04:19:22;;;;;;;23.4;21.1;;;;;;;7.56;90.85156;966.3772;;;;
2020/03/19 04:21:47;;;;;;;25.7;23;;;;;;;7.42;91.54102;966.3391;;;;
2020/03/19 04:24:12;;;;;;;25.4;22.8;;;;;;;7.37;92.18262;966.3174;;;;
2020/03/19 04:26:37;;;;;;;25.8;23.1;;;;;;;7.36;92.38184;966.3137;;;;
2020/03/19 04:29:02;;;;;;;26.9;24.2;;;;;;;7.37;91.91797;966.3286;;;;
2020/03/19 04:31:27;;;;;;;27.4;24.5;;;;;;;7.35;92.3252;966.3017;;;;
2020/03/19 04:33:52;;;;;;;27.1;24.3;;;;;;;7.4;91.86816;966.343;;;;
2020/03/19 04:36:18;;;;;;;28.1;25.4;;;;;;;7.37;91.71191;966.2679;;;;
2020/03/19 04:38:43;;;;;;;29.1;26.1;;;;;;;7.34;92.07129;966.2692;;;;
2020/03/19 04:41:08;;;;;;;28.3;25.5;;;;;;;7.32;92.11328;966.2941;;;;
2020/03/19 04:43:33;;;;;;;29.7;26.8;;;;;;;7.36;92.30371;966.2676;;;;
2020/03/19 04:45:58;;;;;;;28.9;26.1;;;;;;;7.29;92.21094;966.2434;;;;
2020/03/19 04:48:23;;;;;;;29.4;26.5;;;;;;;7.31;92.4541;966.212;;;;
2020/03/19 04:50:49;;;;;;;29.9;26.6;;;;;;;7.32;92.14746;966.2308;;;;
2020/03/19 04:53:14;;;;;;;30.1;26.9;;;;;;;7.31;92.68066;966.1964;;;;
2020/03/19 04:55:40;;;;;;;29.1;26;;;;;;;7.28;92.16113;966.2545;;;;
2020/03/19 04:58:05;;;;;;;29.5;26.6;;;;;;;7.26;92.53223;966.255;;;;
2020/03/19 05:00:30;;;;;;;29.5;26.4;;;;;;;7.28;92.6748;966.2609;;;;
2020/03/19 05:02:55;;;;;;;30.6;27.3;;;;;;;7.23;93.01758;966.2424;;;;
2020/03/19 05:05:20;;;;;;;29.9;26.9;;;;;;;7.18;92.96191;966.2762;;;;
2020/03/19 05:07:45;;;;;;;29.8;26.9;;;;;;;7.14;93.44531;966.2969;;;;
2020/03/19 05:10:10;;;;;;;29;26.2;;;;;;;7.23;93.14355;966.2764;;;;
2020/03/19 05:12:36;;;;;;;30;27;;;;;;;7.11;93.2666;966.2704;;;;
2020/03/19 05:15:01;;;;;;;28.7;25.8;;;;;;;7.19;93.29492;966.2439;;;;
2020/03/19 05:17:26;;;;;;;29.1;26.1;;;;;;;7.15;93.03418;966.2586;;;;
2020/03/19 05:19:52;;;;;;;30;26.8;;;;;;;7.03;93.65918;966.2369;;;;
2020/03/19 05:22:17;;;;;;;28;25.2;;;;;;;7.17;92.99414;966.2927;;;;
2020/03/19 05:24:42;;;;;;;28.4;25.4;;;;;;;7.12;93.40527;966.2955;;;;
2020/03/19 05:27:08;;;;;;;27.9;25.1;;;;;;;7.16;93.09277;966.3116;;;;
2020/03/19 05:29:33;;;;;;;27.3;24.4;;;;;;;7.19;92.51855;966.3372;;;;
2020/03/19 05:31:58;;;;;;;28.5;25.5;;;;;;;7.03;93.47656;966.3223;;;;
2020/03/19 05:34:23;;;;;;;27.4;24.6;;;;;;;7.03;93.27344;966.3378;;;;
2020/03/19 05:36:48;;;;;;;26.8;23.9;;;;;;;6.99;93.35547;966.322;;;;
2020/03/19 05:39:13;;;;;;;26.6;23.9;;;;;;;6.95;93.33594;966.3092;;;;
2020/03/19 05:41:38;;;;;;;24.9;22.3;;;;;;;7.08;92.62109;966.3292;;;;
2020/03/19 05:44:03;;;;;;;24.7;22.3;;;;;;;7.12;92.33203;966.3109;;;;
2020/03/19 05:46:29;;;;;;;26;23.2;;;;;;;6.98;92.74805;966.2902;;;;
2020/03/19 05:48:54;;;;;;;25.2;22.6;;;;;;;6.93;92.78027;966.3136;;;;
2020/03/19 05:51:19;;;;;;;25.7;23;;;;;;;6.85;92.85645;966.321;;;;
2020/03/19 05:54:12;;;;;;;25.7;22.9;;;;;;;6.99;93.32031;966.2523;;;;
2020/03/19 05:56:37;;;;;;;25.4;22.8;;;;;;;6.96;93.00684;966.3144;;;;
2020/03/19 05:59:02;;;;;;;25;22.3;;;;;;;7.03;93.02051;966.3256;;;;
2020/03/19 06:01:27;;;;;;;26.4;23.6;;;;;;;6.98;92.65527;966.4164;;;;
2020/03/19 06:03:52;;;;;;;24.3;21.8;;;;;;;7.04;92.04102;966.4052;;;;
2020/03/19 06:06:17;;;;;;;24.1;21.5;;;;;;;7.24;91.03223;966.3861;;;;
2020/03/19 06:08:42;;;;;;;26.6;22.8;;;;;;;7.16;91.68848;966.4193;;;;
2020/03/19 06:11:07;;;;;;;24.3;21.8;;;;;;;7.33;91.26855;966.4224;;;;
2020/03/19 06:13:33;;;;;;;26.2;22.8;;;;;;;7.24;91.5918;966.4039;;;;
2020/03/19 06:15:58;;;;;;;22.9;20.7;;;;;;;7.34;91.16895;966.4702;;;;
2020/03/19 06:18:23;;;;;;;24.5;22;;;;;;;7.24;91.67383;966.4587;;;;
2020/03/19 06:20:48;;;;;;;23.8;21.5;;;;;;;7.29;91.1582;966.4728;;;;
2020/03/19 06:23:13;;;;;;;24.7;22.1;;;;;;;7.31;91.23047;966.4381;;;;
2020/03/19 06:25:38;;;;;;;24.4;21.8;;;;;;;7.25;90.96777;966.438;;;;
2020/03/19 06:28:03;;;;;;;22.9;20.4;;;;;;;7.38;90.69727;966.4951;;;;
2020/03/19 06:30:28;;;;;;;22.9;20.4;;;;;;;7.48;90.75391;966.4641;;;;
2020/03/19 06:32:53;;;;;;;24;21.5;;;;;;;7.44;90.9043;966.4995;;;;
2020/03/19 06:35:18;;;;;;;24;21;;;;;;;7.38;90.44531;966.4944;;;;
2020/03/19 06:37:43;;;;;;;22.8;20.2;;;;;;;7.45;90.09473;966.526;;;;
2020/03/19 06:40:08;;;;;;;23.5;21.1;;;;;;;7.57;90.16504;966.5544;;;;
2020/03/19 06:42:34;;;;;;;22.9;20.4;;;;;;;7.61;88.94043;966.5822;;;;
2020/03/19 06:44:59;;;;;;;23.2;20.7;;;;;;;7.63;89.09277;966.5602;;;;
2020/03/19 06:47:24;;;;;;;22.9;20.5;;;;;;;7.7;89.39355;966.5923;;;;
2020/03/19 06:49:49;;;;;;;22;19.5;;;;;;;7.81;88.40918;966.5659;;;;
2020/03/19 06:52:14;;;;;;;21.2;19;;;;;;;7.75;88.73926;966.5936;;;;
2020/03/19 06:54:39;;;;;;;22.6;17.5;;;;;;;7.95;87.61523;966.5578;;;;
2020/03/19 06:57:04;;;;;;;20.3;18.2;;;;;;;8.04;87.88477;966.5477;;;;
2020/03/19 06:59:29;;;;;;;20.3;17.6;;;;;;;8.19;86.65527;966.4958;;;;
2020/03/19 07:01:55;;;;;;;19.6;17.6;;;;;;;8.23;86.17383;966.5027;;;;
2020/03/19 07:04:20;;;;;;;19.9;17.5;;;;;;;8.29;85.94238;966.5388;;;;
2020/03/19 07:06:45;;;;;;;21.6;17.6;;;;;;;8.37;86.54297;966.5604;;;;
2020/03/19 07:09:11;;;;;;;19.5;16.9;;;;;;;8.46;85.64453;966.5432;;;;
2020/03/19 07:11:36;;;;;;;18.5;16.6;;;;;;;8.52;86.29785;966.6088;;;;
2020/03/19 07:14:01;;;;;;;19.6;16.6;;;;;;;8.69;84.86523;966.5577;;;;
2020/03/19 07:16:28;;;;;;;20.9;17;;;;;;;8.68;84.55664;966.5494;;;;
2020/03/19 07:18:53;;;;;;;19.9;17.3;;;;;;;8.6;84.90527;966.5754;;;;
2020/03/19 07:21:16;;;;;;;21.8;17.9;;;;;;;8.58;85.1543;966.6153;;;;
2020/03/19 07:23:42;;;;;;;19.1;17;;;;;;;8.66;84.12695;966.538;;;;
2020/03/19 07:26:07;;;;;;;20.2;17.5;;;;;;;8.77;84.13867;966.5828;;;;
2020/03/19 07:28:32;;;;;;;21.1;16.5;;;;;;;8.89;84.34473;966.5984;;;;
2020/03/19 07:30:58;;;;;;;18.4;16.5;;;;;;;8.9;83.25586;966.6475;;;;
2020/03/19 07:33:23;;;;;;;19.8;16.3;;;;;;;9.1;82.85938;966.6387;;;;
2020/03/19 07:35:48;;;;;;;19.6;16.1;;;;;;;9.2;82.44238;966.6478;;;;
2020/03/19 07:38:14;;;;;;;20.1;16.8;;;;;;;9.2;81.62793;966.6397;;;;
2020/03/19 07:40:39;;;;;;;18.1;16.2;;;;;;;9.34;81.11523;966.6473;;;;
2020/03/19 07:43:04;;;;;;;17.8;15.9;;;;;;;9.42;81.1748;966.6636;;;;
2020/03/19 07:45:29;;;;;;;17.7;15.8;;;;;;;9.5;81.14551;966.6707;;;;
2020/03/19 07:47:54;;;;;;;18.3;15.6;;;;;;;9.45;80.48145;966.6655;;;;
2020/03/19 07:50:19;;;;;;;18.8;16.1;;;;;;;9.63;79.83691;966.7014;;;;
2020/03/19 07:52:44;;;;;;;19.4;16.5;;;;;;;9.82;79.66504;966.6897;;;;
2020/03/19 07:55:09;;;;;;;19;15.2;;;;;;;9.94;79.30957;966.7011;;;;
2020/03/19 07:57:34;;;;;;;16.4;14.7;;;;;;;10.06;78.19238;966.7172;;;;
2020/03/19 08:00:00;;;;;;;18.4;16.4;;;;;;;10.05;78.39941;966.6935;;;;
2020/03/19 08:02:25;;;;;;;20.4;16.4;;;;;;;9.95;79.46191;966.7364;;;;
2020/03/19 08:04:50;;;;;;;22.1;16.8;;;;;;;10.03;79.43066;966.7318;;;;
2020/03/19 08:07:15;;;;;;;20.5;16;;;;;;;10.13;78.24023;966.712;;;;
2020/03/19 08:09:40;;;;;;;20.3;17.1;;;;;;;10.06;78.51563;966.7889;;;;
2020/03/19 08:12:05;;;;;;;18;15.6;;;;;;;10.22;77.27832;966.7483;;;;
2020/03/19 08:14:30;;;;;;;17.4;15.6;;;;;;;10.39;76.88379;966.7419;;;;
2020/03/19 08:16:55;;;;;;;18;15.8;;;;;;;10.57;76.50293;966.7533;;;;
2020/03/19 08:19:20;;;;;;;18.4;15.6;;;;;;;10.74;75.83984;966.7156;;;;
2020/03/19 08:21:46;;;;;;;17.6;15.4;;;;;;;10.89;74.97852;966.7151;;;;
2020/03/19 08:24:11;;;;;;;16.9;15.1;;;;;;;10.91;75.69727;966.7494;;;;
2020/03/19 08:26:36;;;;;;;17.6;15.5;;;;;;;10.93;75.89746;966.7551;;;;
2020/03/19 08:29:01;;;;;;;18.5;15.3;;;;;;;10.91;75.36133;966.7828;;;;
2020/03/19 08:31:26;;;;;;;16;14.3;;;;;;;11.02;74.80566;966.7527;;;;
2020/03/19 08:33:51;;;;;;;17.3;15;;;;;;;11.16;74.02441;966.8041;;;;
2020/03/19 08:36:16;;;;;;;19;14;;;;;;;11.34;73.50098;966.7578;;;;
2020/03/19 08:38:41;;;;;;;14.3;12.8;;;;;;;11.31;72.79297;966.7791;;;;
2020/03/19 08:41:07;;;;;;;14;12.6;;;;;;;11.48;73.04004;966.8658;;;;
2020/03/19 08:43:32;;;;;;;17.4;13.3;;;;;;;11.54;73.41895;966.7859;;;;
2020/03/19 08:45:57;;;;;;;13.8;12.2;;;;;;;11.65;72.53906;966.7784;;;;
2020/03/19 08:48:22;;;;;;;14.9;12.8;;;;;;;11.73;72.16016;966.8409;;;;
2020/03/19 08:50:47;;;;;;;16.6;12.7;;;;;;;11.88;71.6875;966.8419;;;;
2020/03/19 08:53:12;;;;;;;14.2;12.7;;;;;;;11.7;71.14063;966.8165;;;;
2020/03/19 08:55:37;;;;;;;15.8;12.6;;;;;;;11.92;71.54492;966.8159;;;;
2020/03/19 08:58:02;;;;;;;13.9;12.3;;;;;;;11.99;71.41797;966.8395;;;;
2020/03/19 09:00:27;;;;;;;14.5;12.9;;;;;;;11.99;72.61914;966.7477;;;;
2020/03/19 09:02:52;;;;;;;15.2;12.4;;;;;;;12.02;71.97656;966.7913;;;;
2020/03/19 09:05:18;;;;;;;14.3;12.1;;;;;;;12.08;71.69727;966.7405;;;;
2020/03/19 09:07:43;;;;;;;17.6;12.4;;;;;;;12.23;70.65918;966.7402;;;;
2020/03/19 09:10:08;;;;;;;13.6;12.2;;;;;;;12.31;70.78809;966.7617;;;;
2020/03/19 09:12:33;;;;;;;15.1;11.7;;;;;;;12.35;70.14844;966.7773;;;;
2020/03/19 09:14:58;;;;;;;13.7;12.3;;;;;;;12.49;69.34961;966.7316;;;;
2020/03/19 09:17:23;;;;;;;15.4;12;;;;;;;12.42;70.21582;966.7562;;;;
2020/03/19 09:19:48;;;;;;;12.4;11.1;;;;;;;12.64;68.95703;966.7227;;;;
2020/03/19 09:22:13;;;;;;;14;11.4;;;;;;;12.74;68.70801;966.7481;;;;
2020/03/19 09:24:38;;;;;;;13.1;11.3;;;;;;;12.84;67.93555;966.6848;;;;
2020/03/19 09:27:03;;;;;;;13.3;11.9;;;;;;;12.91;67.86719;966.7378;;;;
2020/03/19 09:29:29;;;;;;;13.5;11.3;;;;;;;13.01;67.47754;966.6942;;;;
2020/03/19 09:31:54;;;;;;;13.3;11.7;;;;;;;13.07;68.35254;966.6453;;;;
2020/03/19 09:34:19;;;;;;;12.7;11.4;;;;;;;13.27;66.62598;966.6621;;;;
2020/03/19 09:36:44;;;;;;;13.4;11.9;;;;;;;13.28;66.92871;966.699;;;;
2020/03/19 09:39:09;;;;;;;12.9;11.1;;;;;;;13.35;66.8457;966.6981;;;;
2020/03/19 09:41:35;;;;;;;14.5;12.1;;;;;;;13.51;66.69629;966.7183;;;;
2020/03/19 09:44:00;;;;;;;13.3;11.5;;;;;;;13.63;65.11621;966.6633;;;;
2020/03/19 09:46:25;;;;;;;16;11.8;;;;;;;13.6;66.30566;966.6775;;;;
2020/03/19 09:48:50;;;;;;;14.6;11.7;;;;;;;13.58;65.93066;966.6626;;;;
2020/03/19 09:51:15;;;;;;;13.8;12.3;;;;;;;13.65;66.08203;966.6572;;;;
2020/03/19 09:53:40;;;;;;;13.6;12.1;;;;;;;13.76;66.09766;966.65;;;;
2020/03/19 09:56:06;;;;;;;14;12.5;;;;;;;13.71;66.18359;966.6002;;;;
2020/03/19 09:58:31;;;;;;;12.9;11.6;;;;;;;13.92;65.94727;966.6072;;;;
2020/03/19 10:00:56;;;;;;;12.5;11.3;;;;;;;14.2;65.83984;966.5486;;;;
2020/03/19 10:03:22;;;;;;;13;11.7;;;;;;;14.28;65.94434;966.5591;;;;
2020/03/19 10:05:47;;;;;;;12.3;11;;;;;;;14.25;64.7793;966.5798;;;;
2020/03/19 10:08:12;;;;;;;12;10.8;;;;;;;14.37;64.1123;966.5137;;;;
2020/03/19 10:10:38;;;;;;;12.9;11.1;;;;;;;14.44;64.49316;966.4638;;;;
2020/03/19 10:13:03;;;;;;;13.3;11.9;;;;;;;14.6;63.90137;966.4766;;;;
2020/03/19 10:15:28;;;;;;;14.6;10.9;;;;;;;14.49;61.74902;966.454;;;;
2020/03/19 10:17:53;;;;;;;11.6;10.4;;;;;;;14.77;59.75391;966.4025;;;;
2020/03/19 10:20:18;;;;;;;13.4;10.9;;;;;;;14.9;59.83105;966.4208;;;;
2020/03/19 10:22:43;;;;;;;13.9;11.2;;;;;;;14.86;60.29004;966.3972;;;;
2020/03/19 10:25:09;;;;;;;12.3;11;;;;;;;15.09;60.06641;966.3887;;;;
2020/03/19 10:27:34;;;;;;;12.7;11.3;;;;;;;14.94;60.84766;966.3515;;;;
2020/03/19 10:29:59;;;;;;;14.5;11.4;;;;;;;15.03;60.27832;966.3699;;;;
2020/03/19 10:32:25;;;;;;;13.2;11;;;;;;;15.05;59.85059;966.3522;;;;
2020/03/19 10:34:50;;;;;;;12.9;10.7;;;;;;;14.79;59.72266;966.2913;;;;
2020/03/19 10:37:15;;;;;;;14;11.5;;;;;;;14.99;61.13379;966.3055;;;;
2020/03/19 10:39:40;;;;;;;12.6;10.8;;;;;;;15.07;60.0625;966.2651;;;;
2020/03/19 10:42:06;;;;;;;13.4;10.4;;;;;;;15.29;59.51172;966.2746;;;;
2020/03/19 10:44:31;;;;;;;11.7;10.5;;;;;;;15.25;59.49512;966.2698;;;;
2020/03/19 10:46:56;;;;;;;12.6;11.3;;;;;;;15.34;59.63574;966.2553;;;;
2020/03/19 10:49:21;;;;;;;13;11.7;;;;;;;15.35;59.625;966.2277;;;;
2020/03/19 10:51:46;;;;;;;12.5;11.1;;;;;;;15.2;60.10449;966.1479;;;;
2020/03/19 10:54:12;;;;;;;14;11.1;;;;;;;15.4;60.1084;966.2165;;;;
2020/03/19 10:56:37;;;;;;;12.4;10.7;;;;;;;15.54;59.52246;966.1277;;;;
2020/03/19 10:59:02;;;;;;;12.6;11.2;;;;;;;15.54;59.32422;966.1228;;;;
2020/03/19 11:01:33;;;;;;;11.9;10.7;;;;;;;15.5;59.16797;966.12;;;;
2020/03/19 11:03:52;;;;;;;13.4;10.5;;;;;;;15.48;58.48926;966.0893;;;;
2020/03/19 11:06:18;;;;;;;10.7;9.6;;;;;;;15.49;57.43164;966.0055;;;;
2020/03/19 11:08:43;;;;;;;10.5;9.4;;;;;;;15.71;57.05371;965.9531;;;;
2020/03/19 11:11:08;;;;;;;11.5;10.3;;;;;;;15.81;56.99512;965.9523;;;;
2020/03/19 11:13:33;;;;;;;10.8;8.9;;;;;;;15.83;56.85938;965.8992;;;;
2020/03/19 11:15:58;;;;;;;11.4;10.2;;;;;;;15.83;57.16211;965.8959;;;;
2020/03/19 11:18:23;;;;;;;10.4;8.2;;;;;;;16.21;53.87793;965.89;;;;
2020/03/19 11:20:49;;;;;;;8.2;7.2;;;;;;;16.14;53.42578;965.872;;;;
2020/03/19 11:23:14;;;;;;;8.8;7.2;;;;;;;16.3;52.56934;965.8541;;;;
2020/03/19 11:25:39;;;;;;;8.4;7.5;;;;;;;16.05;52.92676;965.7874;;;;
2020/03/19 11:28:05;;;;;;;8.5;7.6;;;;;;;16.31;53.0625;965.7614;;;;
2020/03/19 11:30:30;;;;;;;9.4;7.2;;;;;;;16.33;53.13379;965.772;;;;
2020/03/19 11:32:55;;;;;;;9.2;7.5;;;;;;;16.22;51.7207;965.7328;;;;
2020/03/19 11:35:20;;;;;;;11.6;7.4;;;;;;;16.3;51.71973;965.7335;;;;
2020/03/19 11:37:45;;;;;;;8.5;7;;;;;;;16.32;52.6543;965.6701;;;;
2020/03/19 11:40:11;;;;;;;9.2;8.2;;;;;;;16.3;52.37109;965.6797;;;;
2020/03/19 11:42:37;;;;;;;7.5;6.1;;;;;;;16.34;51.12891;965.644;;;;
2020/03/19 11:45:02;;;;;;;8.3;6.6;;;;;;;16.44;50.70898;965.6387;;;;
2020/03/19 11:47:27;;;;;;;7.2;6.5;;;;;;;16.45;51.68945;965.605;;;;
2020/03/19 11:49:52;;;;;;;7.3;6.5;;;;;;;16.49;50.66797;965.5931;;;;
2020/03/19 11:52:17;;;;;;;8.3;6.7;;;;;;;16.55;50.2207;965.5983;;;;
2020/03/19 11:54:42;;;;;;;9.4;7.5;;;;;;;16.62;50.20508;965.5641;;;;
2020/03/19 11:57:08;;;;;;;7.6;6.9;;;;;;;16.52;49.9248;965.5867;;;;
2020/03/19 11:59:33;;;;;;;8.4;7.5;;;;;;;16.25;50.53516;965.4773;;;;
2020/03/19 12:01:58;;;;;;;9.1;7.2;;;;;;;16.23;51.11621;965.4211;;;;
2020/03/19 12:04:23;;;;;;;8;7.2;;;;;;;16.42;50.28711;965.4419;;;;
2020/03/19 12:06:48;;;;;;;8.2;7.3;;;;;;;16.4;49.89941;965.3942;;;;
2020/03/19 12:09:13;;;;;;;8.6;7.7;;;;;;;16.31;51.03223;965.3649;;;;
2020/03/19 12:11:38;;;;;;;8.5;7.5;;;;;;;16.36;52.53125;965.3272;;;;
2020/03/19 12:14:04;;;;;;;9.1;8.2;;;;;;;16.26;52.06543;965.3102;;;;
2020/03/19 12:16:29;;;;;;;9.1;8.1;;;;;;;16.44;51.30371;965.308;;;;
2020/03/19 12:18:54;;;;;;;8.9;8;;;;;;;16.51;53.3877;965.2367;;;;
2020/03/19 12:21:55;;;;;;;8.9;7.9;;;;;;;16.81;51.74512;965.2161;;;;
2020/03/19 12:24:20;;;;;;;8.8;7.9;;;;;;;16.68;52.37109;965.1973;;;;
2020/03/19 12:26:45;;;;;;;9.9;7.6;;;;;;;16.57;52.1709;965.2008;;;;
2020/03/19 12:29:10;;;;;;;9;8.1;;;;;;;16.47;52.25293;965.1741;;;;
2020/03/19 12:31:35;;;;;;;8.7;7.8;;;;;;;16.58;52.9541;965.1558;;;;
2020/03/19 12:34:00;;;;;;;8.9;8.1;;;;;;;16.48;52.65039;965.0867;;;;
2020/03/19 12:36:25;;;;;;;9.6;8.6;;;;;;;16.73;52.19043;965.0823;;;;
2020/03/19 12:38:50;;;;;;;9.4;8.4;;;;;;;16.68;54.51953;965.0993;;;;
2020/03/19 12:41:15;;;;;;;9.8;8.6;;;;;;;16.66;52.8125;965.0637;;;;
2020/03/19 12:43:41;;;;;;;9.2;7.9;;;;;;;16.56;53.34766;965.0272;;;;
2020/03/19 12:46:06;;;;;;;9.7;8.7;;;;;;;16.23;54.71875;965.0246;;;;
2020/03/19 12:48:31;;;;;;;9.5;8.5;;;;;;;16.66;52.63672;965.0253;;;;
2020/03/19 12:50:56;;;;;;;10.5;8.9;;;;;;;16.81;52.46875;965.0622;;;;
2020/03/19 12:53:21;;;;;;;9.4;8.5;;;;;;;16.91;52.01172;965.0084;;;;
2020/03/19 12:55:46;;;;;;;10.3;8.8;;;;;;;16.74;52.41309;964.9958;;;;
2020/03/19 12:58:11;;;;;;;10.2;8.7;;;;;;;16.93;51.31543;964.9269;;;;
2020/03/19 13:00:37;;;;;;;9.5;8.5;;;;;;;17.07;51.61035;964.97;;;;
2020/03/19 13:03:01;;;;;;;10;9;;;;;;;17.26;50.66406;964.9653;;;;
2020/03/19 13:05:26;;;;;;;10.5;9.1;;;;;;;17;52.05859;964.9188;;;;
2020/03/19 13:07:52;;;;;;;10.4;9.2;;;;;;;17.22;52.46973;964.9027;;;;
2020/03/19 13:10:17;;;;;;;10.2;9.1;;;;;;;17.18;52.23242;964.8434;;;;
2020/03/19 13:12:42;;;;;;;11;9.6;;;;;;;17.25;51.49219;964.7974;;;;
2020/03/19 13:15:07;;;;;;;10.4;9.3;;;;;;;17.26;51.0498;964.8303;;;;
2020/03/19 13:17:32;;;;;;;10.9;8.9;;;;;;;17.23;51.24512;964.7653;;;;
2020/03/19 13:19:57;;;;;;;9.9;8.4;;;;;;;17.3;51.52246;964.7234;;;;
2020/03/19 13:22:22;;;;;;;9.2;8.3;;;;;;;17.43;51.36133;964.72;;;;
2020/03/19 13:24:47;;;;;;;11.4;8.8;;;;;;;17.47;50.6875;964.7556;;;;
2020/03/19 13:27:13;;;;;;;12.3;9.4;;;;;;;17.2;51.13672;964.7332;;;;
2020/03/19 13:29:38;;;;;;;11.4;9.5;;;;;;;17.13;51.32617;964.7361;;;;
2020/03/19 13:32:03;;;;;;;11.8;8.8;;;;;;;17.3;51.43945;964.7217;;;;
2020/03/19 13:34:28;;;;;;;10.1;9.1;;;;;;;17.25;50.4873;964.6647;;;;
2020/03/19 13:36:54;;;;;;;10.6;9.1;;;;;;;17.28;50.40918;964.6919;;;;
2020/03/19 13:39:19;;;;;;;9.7;8.7;;;;;;;17.27;50.16211;964.6656;;;;
2020/03/19 13:41:45;;;;;;;10;8.9;;;;;;;17.3;50.66797;964.6261;;;;
2020/03/19 13:44:10;;;;;;;9.9;8.8;;;;;;;17.37;50.38281;964.6187;;;;
2020/03/19 13:46:35;;;;;;;10.1;9.1;;;;;;;17.25;50.125;964.5262;;;;
2020/03/19 13:49:00;;;;;;;10.4;9.3;;;;;;;17.2;50.86719;964.5344;;;;
2020/03/19 13:51:25;;;;;;;10.2;8.5;;;;;;;17.36;50.42969;964.5314;;;;
2020/03/19 13:53:50;;;;;;;10.1;9.1;;;;;;;17.44;49.39844;964.495;;;;
2020/03/19 13:56:15;;;;;;;9.6;8.7;;;;;;;17.28;50.92285;964.4827;;;;
2020/03/19 13:58:40;;;;;;;9.9;8.8;;;;;;;17.38;50.74805;964.4475;;;;
2020/03/19 14:01:07;;;;;;;9.5;8.5;;;;;;;17.42;49.84082;964.4721;;;;
2020/03/19 14:03:31;;;;;;;10.1;9;;;;;;;17.56;49.36621;964.4565;;;;